sensor_id;sensor_type;location;lat;lon;timestamp;P1;durP1;ratioP1;P2;durP2;ratioP2
14992;SDS011;7592;51.088;13.732;2023-09-19T00:03:12;3.27;;;2.63;;
14992;SDS011;7592;51.088;13.732;2023-09-19T00:08:05;5.87;;;3.13;;
14992;SDS011;7592;51.088;13.732;2023-09-19T00:12:57;3.37;;;3.07;;
14992;SDS011;7592;51.088;13.732;2023-09-19T00:17:56;2.60;;;2.50;;
14992;SDS011;7592;51.088;13.732;2023-09-19T00:22:49;3.50;;;3.20;;
14992;SDS011;7592;51.088;13.732;2023-09-19T00:27:43;4.17;;;2.80;;
14992;SDS011;7592;51.088;13.732;2023-09-19T00:32:36;5.00;;;2.90;;
14992;SDS011;7592;51.088;13.732;2023-09-19T00:37:29;2.33;;;1.87;;
14992;SDS011;7592;51.088;13.732;2023-09-19T00:42:21;3.27;;;2.27;;
14992;SDS011;7592;51.088;13.732;2023-09-19T00:47:14;2.53;;;2.33;;
14992;SDS011;7592;51.088;13.732;2023-09-19T00:52:10;2.90;;;2.37;;
14992;SDS011;7592;51.088;13.732;2023-09-19T00:57:03;2.67;;;2.33;;
14992;SDS011;7592;51.088;13.732;2023-09-19T01:01:56;2.87;;;2.07;;
14992;SDS011;7592;51.088;13.732;2023-09-19T01:39:41;5.87;;;3.00;;
14992;SDS011;7592;51.088;13.732;2023-09-19T01:44:40;5.93;;;2.93;;
14992;SDS011;7592;51.088;13.732;2023-09-19T01:49:42;4.17;;;3.80;;
14992;SDS011;7592;51.088;13.732;2023-09-19T01:54:52;4.67;;;3.10;;
14992;SDS011;7592;51.088;13.732;2023-09-19T01:59:52;3.97;;;3.47;;
14992;SDS011;7592;51.088;13.732;2023-09-19T02:04:52;3.17;;;2.93;;
14992;SDS011;7592;51.088;13.732;2023-09-19T02:09:50;4.07;;;3.67;;
14992;SDS011;7592;51.088;13.732;2023-09-19T02:14:42;4.90;;;4.20;;
14992;SDS011;7592;51.088;13.732;2023-09-19T02:19:34;4.87;;;4.43;;
14992;SDS011;7592;51.088;13.732;2023-09-19T02:24:26;5.23;;;4.37;;
14992;SDS011;7592;51.088;13.732;2023-09-19T02:29:19;4.47;;;4.17;;
14992;SDS011;7592;51.088;13.732;2023-09-19T02:34:13;4.30;;;3.90;;
14992;SDS011;7592;51.088;13.732;2023-09-19T02:39:08;5.90;;;4.67;;
14992;SDS011;7592;51.088;13.732;2023-09-19T02:44:01;4.70;;;4.30;;
14992;SDS011;7592;51.088;13.732;2023-09-19T02:48:53;3.00;;;1.90;;
14992;SDS011;7592;51.088;13.732;2023-09-19T02:53:46;2.93;;;1.20;;
14992;SDS011;7592;51.088;13.732;2023-09-19T02:58:39;2.70;;;1.50;;
14992;SDS011;7592;51.088;13.732;2023-09-19T03:03:33;2.73;;;1.10;;
14992;SDS011;7592;51.088;13.732;2023-09-19T03:08:25;2.23;;;1.27;;
14992;SDS011;7592;51.088;13.732;2023-09-19T03:13:18;2.73;;;1.50;;
14992;SDS011;7592;51.088;13.732;2023-09-19T03:18:10;1.93;;;1.30;;
14992;SDS011;7592;51.088;13.732;2023-09-19T03:23:03;1.43;;;0.90;;
14992;SDS011;7592;51.088;13.732;2023-09-19T03:27:57;1.67;;;1.57;;
14992;SDS011;7592;51.088;13.732;2023-09-19T03:32:50;3.30;;;1.27;;
14992;SDS011;7592;51.088;13.732;2023-09-19T03:37:43;1.27;;;1.17;;
14992;SDS011;7592;51.088;13.732;2023-09-19T03:42:38;3.13;;;1.30;;
14992;SDS011;7592;51.088;13.732;2023-09-19T03:47:33;2.10;;;1.00;;
14992;SDS011;7592;51.088;13.732;2023-09-19T03:52:27;3.00;;;1.27;;
14992;SDS011;7592;51.088;13.732;2023-09-19T03:57:19;1.17;;;1.00;;
14992;SDS011;7592;51.088;13.732;2023-09-19T04:02:12;3.90;;;1.50;;
14992;SDS011;7592;51.088;13.732;2023-09-19T04:07:14;2.63;;;1.13;;
14992;SDS011;7592;51.088;13.732;2023-09-19T04:12:07;2.20;;;1.27;;
14992;SDS011;7592;51.088;13.732;2023-09-19T04:17:02;1.47;;;1.13;;
14992;SDS011;7592;51.088;13.732;2023-09-19T04:21:59;2.90;;;1.50;;
14992;SDS011;7592;51.088;13.732;2023-09-19T04:26:52;2.80;;;1.33;;
14992;SDS011;7592;51.088;13.732;2023-09-19T04:31:44;1.30;;;1.20;;
14992;SDS011;7592;51.088;13.732;2023-09-19T04:36:37;2.07;;;1.73;;
14992;SDS011;7592;51.088;13.732;2023-09-19T04:41:29;2.17;;;1.70;;
14992;SDS011;7592;51.088;13.732;2023-09-19T04:46:22;1.63;;;1.30;;
14992;SDS011;7592;51.088;13.732;2023-09-19T04:51:14;3.27;;;1.63;;
14992;SDS011;7592;51.088;13.732;2023-09-19T04:56:06;2.07;;;1.90;;
14992;SDS011;7592;51.088;13.732;2023-09-19T05:00:59;2.67;;;2.00;;
14992;SDS011;7592;51.088;13.732;2023-09-19T05:05:55;1.60;;;1.50;;
14992;SDS011;7592;51.088;13.732;2023-09-19T05:10:47;3.63;;;1.90;;
14992;SDS011;7592;51.088;13.732;2023-09-19T05:15:40;1.33;;;1.13;;
14992;SDS011;7592;51.088;13.732;2023-09-19T05:20:32;3.30;;;1.07;;
14992;SDS011;7592;51.088;13.732;2023-09-19T05:25:27;2.63;;;1.90;;
14992;SDS011;7592;51.088;13.732;2023-09-19T05:30:29;2.10;;;1.57;;
14992;SDS011;7592;51.088;13.732;2023-09-19T05:35:21;1.73;;;1.33;;
14992;SDS011;7592;51.088;13.732;2023-09-19T05:40:14;1.63;;;1.53;;
14992;SDS011;7592;51.088;13.732;2023-09-19T05:45:07;1.03;;;1.00;;
14992;SDS011;7592;51.088;13.732;2023-09-19T05:50:03;3.53;;;1.40;;
14992;SDS011;7592;51.088;13.732;2023-09-19T05:54:56;1.37;;;1.20;;
14992;SDS011;7592;51.088;13.732;2023-09-19T05:59:49;4.10;;;1.30;;
14992;SDS011;7592;51.088;13.732;2023-09-19T06:04:42;2.03;;;1.20;;
14992;SDS011;7592;51.088;13.732;2023-09-19T06:09:34;1.07;;;1.07;;
14992;SDS011;7592;51.088;13.732;2023-09-19T06:14:26;2.30;;;1.20;;
14992;SDS011;7592;51.088;13.732;2023-09-19T06:19:18;1.13;;;1.03;;
14992;SDS011;7592;51.088;13.732;2023-09-19T06:24:14;2.87;;;1.17;;
14992;SDS011;7592;51.088;13.732;2023-09-19T06:29:07;1.97;;;1.67;;
14992;SDS011;7592;51.088;13.732;2023-09-19T06:33:59;3.10;;;1.23;;
14992;SDS011;7592;51.088;13.732;2023-09-19T06:38:51;2.07;;;0.93;;
14992;SDS011;7592;51.088;13.732;2023-09-19T06:43:44;1.43;;;1.00;;
14992;SDS011;7592;51.088;13.732;2023-09-19T06:48:36;2.40;;;1.40;;
14992;SDS011;7592;51.088;13.732;2023-09-19T06:53:28;4.27;;;1.40;;
14992;SDS011;7592;51.088;13.732;2023-09-19T06:58:23;2.50;;;1.40;;
14992;SDS011;7592;51.088;13.732;2023-09-19T07:03:15;2.00;;;1.60;;
14992;SDS011;7592;51.088;13.732;2023-09-19T07:08:11;2.10;;;1.10;;
14992;SDS011;7592;51.088;13.732;2023-09-19T07:13:05;1.65;;;1.55;;
14992;SDS011;7592;51.088;13.732;2023-09-19T07:18:00;2.38;;;1.25;;
14992;SDS011;7592;51.088;13.732;2023-09-19T07:22:53;3.17;;;1.45;;
14992;SDS011;7592;51.088;13.732;2023-09-19T07:27:47;3.95;;;1.40;;
14992;SDS011;7592;51.088;13.732;2023-09-19T07:32:40;1.20;;;1.20;;
14992;SDS011;7592;51.088;13.732;2023-09-19T07:37:32;2.70;;;1.10;;
14992;SDS011;7592;51.088;13.732;2023-09-19T07:42:25;1.65;;;1.20;;
14992;SDS011;7592;51.088;13.732;2023-09-19T07:47:17;1.90;;;1.30;;
14992;SDS011;7592;51.088;13.732;2023-09-19T07:52:09;1.95;;;1.10;;
14992;SDS011;7592;51.088;13.732;2023-09-19T07:57:02;2.35;;;1.20;;
14992;SDS011;7592;51.088;13.732;2023-09-19T08:01:54;1.53;;;1.30;;
14992;SDS011;7592;51.088;13.732;2023-09-19T08:06:46;1.47;;;1.37;;
14992;SDS011;7592;51.088;13.732;2023-09-19T08:11:39;2.83;;;1.20;;
14992;SDS011;7592;51.088;13.732;2023-09-19T08:16:31;1.48;;;1.38;;
14992;SDS011;7592;51.088;13.732;2023-09-19T08:21:23;1.58;;;1.48;;
14992;SDS011;7592;51.088;13.732;2023-09-19T08:26:17;2.45;;;2.25;;
14992;SDS011;7592;51.088;13.732;2023-09-19T08:31:09;2.75;;;1.25;;
14992;SDS011;7592;51.088;13.732;2023-09-19T08:36:02;1.13;;;1.13;;
14992;SDS011;7592;51.088;13.732;2023-09-19T08:40:59;2.43;;;1.00;;
14992;SDS011;7592;51.088;13.732;2023-09-19T08:45:57;1.40;;;1.30;;
14992;SDS011;7592;51.088;13.732;2023-09-19T08:51:00;1.40;;;1.30;;
14992;SDS011;7592;51.088;13.732;2023-09-19T08:56:02;1.43;;;1.20;;
14992;SDS011;7592;51.088;13.732;2023-09-19T09:00:57;2.73;;;1.00;;
14992;SDS011;7592;51.088;13.732;2023-09-19T09:05:53;0.93;;;0.83;;
14992;SDS011;7592;51.088;13.732;2023-09-19T09:10:46;1.40;;;1.27;;
14992;SDS011;7592;51.088;13.732;2023-09-19T09:15:39;1.90;;;1.20;;
14992;SDS011;7592;51.088;13.732;2023-09-19T09:20:32;5.70;;;5.10;;
14992;SDS011;7592;51.088;13.732;2023-09-19T09:25:46;3.30;;;2.17;;
14992;SDS011;7592;51.088;13.732;2023-09-19T09:30:39;2.20;;;1.20;;
14992;SDS011;7592;51.088;13.732;2023-09-19T09:35:32;2.37;;;1.03;;
14992;SDS011;7592;51.088;13.732;2023-09-19T09:40:24;3.43;;;1.40;;
14992;SDS011;7592;51.088;13.732;2023-09-19T09:45:27;1.37;;;0.83;;
14992;SDS011;7592;51.088;13.732;2023-09-19T09:50:29;1.15;;;1.13;;
14992;SDS011;7592;51.088;13.732;2023-09-19T10:01:09;1.00;;;1.00;;
14992;SDS011;7592;51.088;13.732;2023-09-19T10:06:02;1.98;;;1.50;;
14992;SDS011;7592;51.088;13.732;2023-09-19T10:11:17;2.38;;;1.52;;
14992;SDS011;7592;51.088;13.732;2023-09-19T10:16:11;1.95;;;1.50;;
14992;SDS011;7592;51.088;13.732;2023-09-19T10:21:07;2.35;;;2.17;;
14992;SDS011;7592;51.088;13.732;2023-09-19T10:26:01;1.88;;;1.60;;
14992;SDS011;7592;51.088;13.732;2023-09-19T10:30:54;2.15;;;0.90;;
14992;SDS011;7592;51.088;13.732;2023-09-19T10:35:49;0.90;;;0.90;;
14992;SDS011;7592;51.088;13.732;2023-09-19T10:40:48;1.67;;;1.25;;
14992;SDS011;7592;51.088;13.732;2023-09-19T10:45:42;2.53;;;2.33;;
14992;SDS011;7592;51.088;13.732;2023-09-19T10:55:57;1.85;;;1.40;;
14992;SDS011;7592;51.088;13.732;2023-09-19T11:06:00;3.13;;;2.85;;
14992;SDS011;7592;51.088;13.732;2023-09-19T11:10:52;2.25;;;2.10;;
14992;SDS011;7592;51.088;13.732;2023-09-19T11:20:54;1.50;;;1.50;;
14992;SDS011;7592;51.088;13.732;2023-09-19T11:26:46;4.40;;;3.55;;
14992;SDS011;7592;51.088;13.732;2023-09-19T11:31:41;1.88;;;1.77;;
14992;SDS011;7592;51.088;13.732;2023-09-19T11:36:38;1.67;;;1.58;;
14992;SDS011;7592;51.088;13.732;2023-09-19T11:41:36;1.52;;;1.38;;
14992;SDS011;7592;51.088;13.732;2023-09-19T11:46:33;2.08;;;1.20;;
14992;SDS011;7592;51.088;13.732;2023-09-19T11:51:26;1.77;;;1.67;;
14992;SDS011;7592;51.088;13.732;2023-09-19T11:56:19;4.97;;;4.23;;
14992;SDS011;7592;51.088;13.732;2023-09-19T12:01:14;2.20;;;1.90;;
14992;SDS011;7592;51.088;13.732;2023-09-19T12:06:12;3.87;;;2.47;;
14992;SDS011;7592;51.088;13.732;2023-09-19T12:11:06;2.27;;;2.07;;
14992;SDS011;7592;51.088;13.732;2023-09-19T12:16:02;1.73;;;1.27;;
14992;SDS011;7592;51.088;13.732;2023-09-19T12:21:11;3.20;;;2.47;;
14992;SDS011;7592;51.088;13.732;2023-09-19T12:26:18;2.87;;;1.30;;
14992;SDS011;7592;51.088;13.732;2023-09-19T12:31:11;3.00;;;1.03;;
14992;SDS011;7592;51.088;13.732;2023-09-19T12:36:22;3.77;;;2.03;;
14992;SDS011;7592;51.088;13.732;2023-09-19T12:41:22;3.00;;;1.10;;
14992;SDS011;7592;51.088;13.732;2023-09-19T12:46:14;1.97;;;1.53;;
14992;SDS011;7592;51.088;13.732;2023-09-19T12:51:11;1.83;;;1.07;;
14992;SDS011;7592;51.088;13.732;2023-09-19T12:56:08;1.33;;;1.03;;
14992;SDS011;7592;51.088;13.732;2023-09-19T13:01:01;2.23;;;1.20;;
14992;SDS011;7592;51.088;13.732;2023-09-19T13:05:57;2.80;;;1.33;;
14992;SDS011;7592;51.088;13.732;2023-09-19T13:16:06;1.20;;;1.10;;
14992;SDS011;7592;51.088;13.732;2023-09-19T13:21:06;3.73;;;1.00;;
14992;SDS011;7592;51.088;13.732;2023-09-19T13:26:05;4.07;;;1.20;;
14992;SDS011;7592;51.088;13.732;2023-09-19T13:30:57;4.07;;;1.10;;
14992;SDS011;7592;51.088;13.732;2023-09-19T13:35:50;1.23;;;1.13;;
14992;SDS011;7592;51.088;13.732;2023-09-19T13:40:42;1.30;;;1.00;;
14992;SDS011;7592;51.088;13.732;2023-09-19T13:45:34;2.93;;;1.33;;
14992;SDS011;7592;51.088;13.732;2023-09-19T13:50:28;4.23;;;1.53;;
14992;SDS011;7592;51.088;13.732;2023-09-19T13:55:21;1.53;;;1.33;;
14992;SDS011;7592;51.088;13.732;2023-09-19T14:00:13;2.43;;;2.23;;
14992;SDS011;7592;51.088;13.732;2023-09-19T14:05:07;11.13;;;7.37;;
14992;SDS011;7592;51.088;13.732;2023-09-19T14:10:00;3.10;;;2.23;;
14992;SDS011;7592;51.088;13.732;2023-09-19T14:14:52;2.20;;;1.60;;
14992;SDS011;7592;51.088;13.732;2023-09-19T14:19:47;4.77;;;1.53;;
14992;SDS011;7592;51.088;13.732;2023-09-19T14:24:39;2.30;;;1.70;;
14992;SDS011;7592;51.088;13.732;2023-09-19T14:29:32;2.83;;;1.73;;
14992;SDS011;7592;51.088;13.732;2023-09-19T14:34:25;1.67;;;1.57;;
14992;SDS011;7592;51.088;13.732;2023-09-19T14:39:17;2.93;;;1.60;;
14992;SDS011;7592;51.088;13.732;2023-09-19T14:44:11;3.33;;;1.80;;
14992;SDS011;7592;51.088;13.732;2023-09-19T14:49:03;2.43;;;1.60;;
14992;SDS011;7592;51.088;13.732;2023-09-19T14:53:56;2.17;;;1.83;;
14992;SDS011;7592;51.088;13.732;2023-09-19T14:58:49;3.03;;;2.00;;
14992;SDS011;7592;51.088;13.732;2023-09-19T15:03:41;3.10;;;1.20;;
14992;SDS011;7592;51.088;13.732;2023-09-19T15:08:34;6.13;;;2.53;;
14992;SDS011;7592;51.088;13.732;2023-09-19T15:13:32;2.30;;;2.20;;
14992;SDS011;7592;51.088;13.732;2023-09-19T15:18:25;3.13;;;1.70;;
14992;SDS011;7592;51.088;13.732;2023-09-19T15:23:18;1.70;;;1.60;;
14992;SDS011;7592;51.088;13.732;2023-09-19T15:28:22;2.50;;;2.03;;
14992;SDS011;7592;51.088;13.732;2023-09-19T15:33:18;3.23;;;1.90;;
14992;SDS011;7592;51.088;13.732;2023-09-19T15:38:10;2.70;;;2.50;;
14992;SDS011;7592;51.088;13.732;2023-09-19T15:43:06;2.23;;;1.93;;
14992;SDS011;7592;51.088;13.732;2023-09-19T15:47:58;2.37;;;2.17;;
14992;SDS011;7592;51.088;13.732;2023-09-19T15:52:54;4.37;;;1.80;;
14992;SDS011;7592;51.088;13.732;2023-09-19T15:57:46;7.00;;;2.13;;
14992;SDS011;7592;51.088;13.732;2023-09-19T16:02:39;2.30;;;2.10;;
14992;SDS011;7592;51.088;13.732;2023-09-19T16:07:32;3.77;;;2.20;;
14992;SDS011;7592;51.088;13.732;2023-09-19T16:12:25;2.00;;;1.90;;
14992;SDS011;7592;51.088;13.732;2023-09-19T16:17:17;2.30;;;2.20;;
14992;SDS011;7592;51.088;13.732;2023-09-19T16:22:10;2.53;;;2.00;;
14992;SDS011;7592;51.088;13.732;2023-09-19T16:27:02;2.20;;;2.00;;
14992;SDS011;7592;51.088;13.732;2023-09-19T16:31:55;2.50;;;2.30;;
14992;SDS011;7592;51.088;13.732;2023-09-19T16:36:47;3.77;;;2.37;;
14992;SDS011;7592;51.088;13.732;2023-09-19T16:41:40;2.23;;;2.03;;
14992;SDS011;7592;51.088;13.732;2023-09-19T16:46:33;4.23;;;1.90;;
14992;SDS011;7592;51.088;13.732;2023-09-19T16:51:26;2.40;;;2.03;;
14992;SDS011;7592;51.088;13.732;2023-09-19T16:56:20;2.50;;;2.30;;
14992;SDS011;7592;51.088;13.732;2023-09-19T17:01:12;3.63;;;2.13;;
14992;SDS011;7592;51.088;13.732;2023-09-19T17:06:10;3.03;;;2.17;;
14992;SDS011;7592;51.088;13.732;2023-09-19T17:11:07;7.00;;;2.77;;
14992;SDS011;7592;51.088;13.732;2023-09-19T17:16:08;3.60;;;2.43;;
14992;SDS011;7592;51.088;13.732;2023-09-19T17:21:24;2.90;;;2.70;;
14992;SDS011;7592;51.088;13.732;2023-09-19T17:26:18;5.53;;;2.77;;
14992;SDS011;7592;51.088;13.732;2023-09-19T17:31:19;3.20;;;2.90;;
14992;SDS011;7592;51.088;13.732;2023-09-19T17:36:17;4.00;;;2.60;;
14992;SDS011;7592;51.088;13.732;2023-09-19T17:41:12;4.43;;;3.43;;
14992;SDS011;7592;51.088;13.732;2023-09-19T17:46:11;3.37;;;2.97;;
14992;SDS011;7592;51.088;13.732;2023-09-19T17:51:05;2.87;;;2.67;;
14992;SDS011;7592;51.088;13.732;2023-09-19T17:55:59;3.17;;;2.73;;
14992;SDS011;7592;51.088;13.732;2023-09-19T18:00:53;3.37;;;2.30;;
14992;SDS011;7592;51.088;13.732;2023-09-19T18:05:51;3.90;;;2.90;;
14992;SDS011;7592;51.088;13.732;2023-09-19T18:10:47;3.47;;;3.17;;
14992;SDS011;7592;51.088;13.732;2023-09-19T18:15:42;2.83;;;2.63;;
14992;SDS011;7592;51.088;13.732;2023-09-19T18:20:36;2.60;;;2.40;;
14992;SDS011;7592;51.088;13.732;2023-09-19T18:25:31;2.53;;;2.33;;
14992;SDS011;7592;51.088;13.732;2023-09-19T18:30:23;3.00;;;2.70;;
14992;SDS011;7592;51.088;13.732;2023-09-19T18:35:36;3.90;;;3.23;;
14992;SDS011;7592;51.088;13.732;2023-09-19T18:40:28;4.43;;;3.43;;
14992;SDS011;7592;51.088;13.732;2023-09-19T18:45:26;6.40;;;3.70;;
14992;SDS011;7592;51.088;13.732;2023-09-19T18:50:31;3.50;;;3.13;;
14992;SDS011;7592;51.088;13.732;2023-09-19T18:55:26;3.60;;;3.30;;
14992;SDS011;7592;51.088;13.732;2023-09-19T19:00:21;5.77;;;3.20;;
14992;SDS011;7592;51.088;13.732;2023-09-19T19:05:17;3.50;;;3.20;;
14992;SDS011;7592;51.088;13.732;2023-09-19T19:10:17;2.93;;;2.50;;
14992;SDS011;7592;51.088;13.732;2023-09-19T19:15:12;3.17;;;2.70;;
14992;SDS011;7592;51.088;13.732;2023-09-19T19:20:11;3.30;;;2.40;;
14992;SDS011;7592;51.088;13.732;2023-09-19T19:25:08;3.37;;;3.13;;
14992;SDS011;7592;51.088;13.732;2023-09-19T19:30:13;3.50;;;3.20;;
14992;SDS011;7592;51.088;13.732;2023-09-19T19:35:17;4.93;;;3.20;;
14992;SDS011;7592;51.088;13.732;2023-09-19T19:40:20;3.43;;;3.10;;
14992;SDS011;7592;51.088;13.732;2023-09-19T19:45:12;3.30;;;3.00;;
14992;SDS011;7592;51.088;13.732;2023-09-19T19:50:22;3.30;;;3.00;;
14992;SDS011;7592;51.088;13.732;2023-09-19T19:55:19;2.83;;;2.47;;
14992;SDS011;7592;51.088;13.732;2023-09-19T20:00:18;2.87;;;2.60;;
14992;SDS011;7592;51.088;13.732;2023-09-19T20:05:12;3.27;;;2.40;;
14992;SDS011;7592;51.088;13.732;2023-09-19T20:10:04;5.37;;;2.80;;
14992;SDS011;7592;51.088;13.732;2023-09-19T20:14:57;3.43;;;3.13;;
14992;SDS011;7592;51.088;13.732;2023-09-19T20:19:51;5.07;;;2.83;;
14992;SDS011;7592;51.088;13.732;2023-09-19T20:24:49;4.10;;;2.73;;
14992;SDS011;7592;51.088;13.732;2023-09-19T20:29:44;3.00;;;2.60;;
14992;SDS011;7592;51.088;13.732;2023-09-19T20:34:42;2.80;;;2.60;;
14992;SDS011;7592;51.088;13.732;2023-09-19T20:39:39;3.30;;;3.00;;
14992;SDS011;7592;51.088;13.732;2023-09-19T20:44:31;5.43;;;2.83;;
14992;SDS011;7592;51.088;13.732;2023-09-19T20:49:24;6.60;;;3.10;;
14992;SDS011;7592;51.088;13.732;2023-09-19T20:54:16;6.70;;;3.10;;
14992;SDS011;7592;51.088;13.732;2023-09-19T20:59:10;5.50;;;3.23;;
14992;SDS011;7592;51.088;13.732;2023-09-19T21:04:10;3.00;;;2.70;;
14992;SDS011;7592;51.088;13.732;2023-09-19T21:09:07;2.77;;;2.30;;
14992;SDS011;7592;51.088;13.732;2023-09-19T21:14:07;3.67;;;2.83;;
14992;SDS011;7592;51.088;13.732;2023-09-19T21:18:59;4.50;;;3.40;;
14992;SDS011;7592;51.088;13.732;2023-09-19T21:23:58;4.70;;;3.27;;
14992;SDS011;7592;51.088;13.732;2023-09-19T21:28:50;5.20;;;3.03;;
14992;SDS011;7592;51.088;13.732;2023-09-19T21:33:43;4.03;;;2.77;;
14992;SDS011;7592;51.088;13.732;2023-09-19T21:38:37;6.33;;;3.07;;
14992;SDS011;7592;51.088;13.732;2023-09-19T21:43:31;2.47;;;2.20;;
14992;SDS011;7592;51.088;13.732;2023-09-19T21:48:23;6.27;;;2.67;;
14992;SDS011;7592;51.088;13.732;2023-09-19T21:53:15;2.87;;;2.67;;
14992;SDS011;7592;51.088;13.732;2023-09-19T21:58:07;4.67;;;2.97;;
14992;SDS011;7592;51.088;13.732;2023-09-19T22:03:06;3.43;;;2.73;;
14992;SDS011;7592;51.088;13.732;2023-09-19T22:07:58;4.13;;;3.30;;
14992;SDS011;7592;51.088;13.732;2023-09-19T22:12:51;5.97;;;4.20;;
14992;SDS011;7592;51.088;13.732;2023-09-19T22:17:43;2.60;;;2.40;;
14992;SDS011;7592;51.088;13.732;2023-09-19T22:22:36;3.60;;;2.83;;
14992;SDS011;7592;51.088;13.732;2023-09-19T22:27:29;3.10;;;2.70;;
14992;SDS011;7592;51.088;13.732;2023-09-19T22:32:22;5.77;;;2.80;;
14992;SDS011;7592;51.088;13.732;2023-09-19T22:37:14;2.50;;;2.30;;
14992;SDS011;7592;51.088;13.732;2023-09-19T22:42:06;2.90;;;2.50;;
14992;SDS011;7592;51.088;13.732;2023-09-19T22:47:03;2.80;;;2.57;;
14992;SDS011;7592;51.088;13.732;2023-09-19T22:51:56;4.37;;;3.03;;
14992;SDS011;7592;51.088;13.732;2023-09-19T22:56:54;6.30;;;2.90;;
14992;SDS011;7592;51.088;13.732;2023-09-19T23:01:47;2.43;;;2.10;;
14992;SDS011;7592;51.088;13.732;2023-09-19T23:06:45;2.43;;;2.27;;
14992;SDS011;7592;51.088;13.732;2023-09-19T23:11:45;3.53;;;2.83;;
14992;SDS011;7592;51.088;13.732;2023-09-19T23:16:37;2.67;;;2.47;;
14992;SDS011;7592;51.088;13.732;2023-09-19T23:21:34;2.53;;;2.30;;
14992;SDS011;7592;51.088;13.732;2023-09-19T23:26:27;3.33;;;2.43;;
14992;SDS011;7592;51.088;13.732;2023-09-19T23:31:19;2.90;;;2.60;;
14992;SDS011;7592;51.088;13.732;2023-09-19T23:36:13;3.33;;;2.13;;
14992;SDS011;7592;51.088;13.732;2023-09-19T23:41:06;5.67;;;2.57;;
14992;SDS011;7592;51.088;13.732;2023-09-19T23:46:02;2.67;;;2.47;;
14992;SDS011;7592;51.088;13.732;2023-09-19T23:50:56;2.33;;;1.90;;
14992;SDS011;7592;51.088;13.732;2023-09-19T23:55:48;2.27;;;2.07;;
